Time;durP1;ratioP1;P1;durP2;ratioP2;P2;SDS_P1;SDS_P2;PMS_P1;PMS_P2;Temp;Humidity;BMP_temperature;BMP_pressure;BME280_temperature;BME280_humidity;BME280_pressure;Samples;Min_cycle;Max_cycle;Signal;HPM_P1;HPM_P2
2022/07/20 00:00:01;;;;;;;4.67;3.93;;;;;;;;;;5091021;28;20537;-70
2022/07/20 00:02:28;;;;;;;7.90;3.80;;;;;;;;;;5088143;28;20478;-70
2022/07/20 00:04:57;;;;;;;7.20;3.83;;;;;;;;;;5085920;28;20867;-69
2022/07/20 00:07:25;;;;;;;7.30;3.63;;;;;;;;;;5095501;28;20473;-69
2022/07/20 00:12:37;;;;;;;7.30;3.60;;;;;;;;;;5027449;28;20461;-69
2022/07/20 00:15:05;;;;;;;5.90;4.13;;;;;;;;;;5088465;28;20448;-69
2022/07/20 00:17:33;;;;;;;5.23;3.93;;;;;;;;;;5094561;28;20495;-69
2022/07/20 00:20:02;;;;;;;6.53;3.93;;;;;;;;;;5080742;28;20460;-69
2022/07/20 00:22:29;;;;;;;5.80;3.80;;;;;;;;;;5087496;28;20534;-69
2022/07/20 00:24:57;;;;;;;5.20;3.77;;;;;;;;;;5087755;28;20475;-69
2022/07/20 00:27:25;;;;;;;8.30;4.90;;;;;;;;;;5086216;28;20471;-69
2022/07/20 00:29:52;;;;;;;5.70;4.20;;;;;;;;;;5097981;28;20518;-69
2022/07/20 00:32:20;;;;;;;5.70;4.00;;;;;;;;;;5093589;28;20459;-69
2022/07/20 00:34:48;;;;;;;5.70;3.93;;;;;;;;;;5094049;28;20470;-69
2022/07/20 00:37:17;;;;;;;6.20;3.60;;;;;;;;;;5089153;28;20456;-69
2022/07/20 00:39:44;;;;;;;6.20;4.30;;;;;;;;;;5084051;28;20624;-69
2022/07/20 00:42:13;;;;;;;7.30;4.30;;;;;;;;;;5090421;28;20476;-69
2022/07/20 00:44:41;;;;;;;7.60;4.77;;;;;;;;;;5090543;28;20470;-69
2022/07/20 00:47:09;;;;;;;6.13;4.60;;;;;;;;;;5089064;28;20459;-69
2022/07/20 00:49:37;;;;;;;6.47;4.63;;;;;;;;;;5082312;28;20932;-69
2022/07/20 00:52:04;;;;;;;7.57;4.70;;;;;;;;;;5082326;28;20465;-69
2022/07/20 00:54:34;;;;;;;8.80;6.60;;;;;;;;;;5082548;28;20467;-69
2022/07/20 00:57:01;;;;;;;11.50;7.37;;;;;;;;;;5097972;28;20542;-69
2022/07/20 00:59:29;;;;;;;17.80;9.90;;;;;;;;;;5078026;28;20560;-69
2022/07/20 01:01:58;;;;;;;13.53;9.00;;;;;;;;;;5079346;28;20817;-69
2022/07/20 01:04:26;;;;;;;9.17;5.87;;;;;;;;;;5085462;28;20553;-69
2022/07/20 01:06:53;;;;;;;10.23;6.47;;;;;;;;;;5085156;28;20496;-69
2022/07/20 01:09:24;;;;;;;11.90;6.37;;;;;;;;;;5081408;28;20472;-69
2022/07/20 01:11:54;;;;;;;14.40;7.40;;;;;;;;;;5096154;28;20542;-69
2022/07/20 01:14:21;;;;;;;9.90;7.13;;;;;;;;;;5075378;28;20483;-69
2022/07/20 01:16:49;;;;;;;14.33;7.77;;;;;;;;;;5079200;28;20543;-69
2022/07/20 01:19:16;;;;;;;10.60;6.73;;;;;;;;;;5080211;28;20508;-69
2022/07/20 01:21:46;;;;;;;12.40;7.43;;;;;;;;;;5076633;28;20459;-69
2022/07/20 01:24:15;;;;;;;8.43;6.20;;;;;;;;;;5084212;28;20715;-69
2022/07/20 01:26:45;;;;;;;8.10;4.77;;;;;;;;;;5080833;28;20522;-69
2022/07/20 01:29:13;;;;;;;9.80;5.17;;;;;;;;;;5084047;28;20526;-69
2022/07/20 01:31:41;;;;;;;7.63;5.13;;;;;;;;;;5077167;28;20486;-69
2022/07/20 01:34:08;;;;;;;7.20;5.13;;;;;;;;;;5083538;28;20462;-69
2022/07/20 01:36:36;;;;;;;10.60;5.70;;;;;;;;;;5092152;28;20469;-69
2022/07/20 01:39:05;;;;;;;8.60;5.17;;;;;;;;;;5084332;28;20479;-69
2022/07/20 01:41:33;;;;;;;11.63;5.67;;;;;;;;;;5089597;28;20866;-69
2022/07/20 01:44:01;;;;;;;7.40;5.37;;;;;;;;;;5079650;28;20467;-69
2022/07/20 01:46:28;;;;;;;9.93;5.83;;;;;;;;;;5090478;28;21154;-69
2022/07/20 01:48:56;;;;;;;8.77;6.13;;;;;;;;;;5082966;28;20457;-69
2022/07/20 01:51:24;;;;;;;9.57;5.50;;;;;;;;;;5082778;28;20476;-69
2022/07/20 01:53:54;;;;;;;7.60;5.20;;;;;;;;;;5081878;28;20463;-69
2022/07/20 01:56:23;;;;;;;7.00;4.63;;;;;;;;;;5086902;28;20460;-69
2022/07/20 01:58:50;;;;;;;8.33;4.70;;;;;;;;;;5082348;28;20490;-69
2022/07/20 02:01:18;;;;;;;8.60;4.70;;;;;;;;;;5071306;28;20499;-69
2022/07/20 02:03:46;;;;;;;5.33;3.80;;;;;;;;;;5078746;28;20459;-69
2022/07/20 02:06:13;;;;;;;6.63;4.57;;;;;;;;;;5083037;28;20461;-69
2022/07/20 02:08:41;;;;;;;6.80;4.60;;;;;;;;;;5081136;28;20885;-70
2022/07/20 02:11:09;;;;;;;8.10;4.77;;;;;;;;;;5076989;28;21036;-69
2022/07/20 02:13:38;;;;;;;7.27;4.30;;;;;;;;;;5076234;28;20873;-69
2022/07/20 02:16:19;;;;;;;6.33;4.20;;;;;;;;;;5087753;28;20464;-69
2022/07/20 02:18:48;;;;;;;6.53;4.33;;;;;;;;;;5080774;28;20490;-69
2022/07/20 02:21:16;;;;;;;6.43;4.20;;;;;;;;;;5080086;28;20456;-69
2022/07/20 02:23:43;;;;;;;5.50;4.77;;;;;;;;;;5091846;28;20468;-69
2022/07/20 02:26:11;;;;;;;6.43;4.30;;;;;;;;;;5085462;28;20542;-69
2022/07/20 02:28:40;;;;;;;5.80;4.17;;;;;;;;;;5090793;28;20463;-69
2022/07/20 02:31:08;;;;;;;5.93;4.60;;;;;;;;;;5072053;28;20452;-69
2022/07/20 02:33:36;;;;;;;6.33;4.20;;;;;;;;;;5078905;28;20460;-69
2022/07/20 02:36:04;;;;;;;8.10;3.90;;;;;;;;;;5072776;28;20908;-69
2022/07/20 02:38:32;;;;;;;5.10;4.17;;;;;;;;;;5083326;28;20495;-69
2022/07/20 02:40:59;;;;;;;7.97;4.13;;;;;;;;;;5077256;28;20487;-69
2022/07/20 02:43:27;;;;;;;5.13;4.00;;;;;;;;;;5092195;28;20546;-69
2022/07/20 02:45:56;;;;;;;6.27;4.43;;;;;;;;;;5081468;28;20455;-69
2022/07/20 02:48:24;;;;;;;4.80;3.43;;;;;;;;;;5086725;28;21049;-69
2022/07/20 02:50:52;;;;;;;6.17;4.10;;;;;;;;;;5086358;28;20460;-69
2022/07/20 02:53:19;;;;;;;7.60;4.33;;;;;;;;;;5079307;28;20460;-69
2022/07/20 02:55:47;;;;;;;7.03;4.23;;;;;;;;;;5089527;28;20525;-69
2022/07/20 02:58:15;;;;;;;5.30;4.00;;;;;;;;;;5080076;28;20550;-69
2022/07/20 03:00:43;;;;;;;5.70;3.87;;;;;;;;;;5076869;28;20463;-69
2022/07/20 03:03:12;;;;;;;5.53;4.47;;;;;;;;;;5086748;28;20531;-69
2022/07/20 03:05:40;;;;;;;5.67;3.83;;;;;;;;;;5076487;28;20455;-69
2022/07/20 03:08:08;;;;;;;5.30;4.37;;;;;;;;;;5077147;28;20449;-69
2022/07/20 03:10:36;;;;;;;6.70;4.50;;;;;;;;;;5074514;28;20820;-69
2022/07/20 03:13:03;;;;;;;7.50;4.90;;;;;;;;;;5074803;28;20475;-69
2022/07/20 03:15:31;;;;;;;5.40;3.83;;;;;;;;;;5082691;28;20535;-69
2022/07/20 03:17:59;;;;;;;6.30;4.60;;;;;;;;;;5089892;28;20848;-69
2022/07/20 03:20:29;;;;;;;13.67;5.40;;;;;;;;;;5092513;28;21002;-69
2022/07/20 03:22:57;;;;;;;5.87;4.10;;;;;;;;;;5084496;28;20456;-69
2022/07/20 03:25:28;;;;;;;7.37;4.33;;;;;;;;;;5085913;28;20536;-69
2022/07/20 03:27:56;;;;;;;7.83;3.90;;;;;;;;;;5087260;28;20453;-69
2022/07/20 03:30:24;;;;;;;5.40;4.27;;;;;;;;;;5076439;28;20463;-69
2022/07/20 03:32:55;;;;;;;5.47;4.30;;;;;;;;;;5082960;28;20744;-69
2022/07/20 03:35:22;;;;;;;6.77;4.20;;;;;;;;;;5075638;28;20479;-69
2022/07/20 03:37:52;;;;;;;6.80;5.03;;;;;;;;;;5090500;28;21075;-69
2022/07/20 03:40:20;;;;;;;7.70;4.83;;;;;;;;;;5082943;28;20492;-69
2022/07/20 03:42:47;;;;;;;6.40;4.77;;;;;;;;;;5075778;28;20441;-69
2022/07/20 03:45:15;;;;;;;8.77;4.37;;;;;;;;;;5083864;28;20471;-69
2022/07/20 03:47:42;;;;;;;5.30;4.57;;;;;;;;;;5086431;28;20487;-69
2022/07/20 03:50:11;;;;;;;8.40;4.30;;;;;;;;;;5062283;28;20508;-69
2022/07/20 03:52:39;;;;;;;7.80;4.97;;;;;;;;;;5074858;28;20455;-69
2022/07/20 03:55:11;;;;;;;6.10;4.10;;;;;;;;;;5075422;28;20461;-69
2022/07/20 03:57:39;;;;;;;8.13;4.70;;;;;;;;;;5077284;28;20456;-69
2022/07/20 04:00:07;;;;;;;6.33;4.20;;;;;;;;;;5075510;28;20885;-69
2022/07/20 04:02:35;;;;;;;6.23;4.73;;;;;;;;;;5091358;28;20452;-69
2022/07/20 04:05:03;;;;;;;6.47;3.97;;;;;;;;;;5079926;28;20528;-69
2022/07/20 04:07:30;;;;;;;6.27;4.13;;;;;;;;;;5082697;28;20721;-69
2022/07/20 04:10:01;;;;;;;6.43;5.30;;;;;;;;;;5086752;28;20499;-69
2022/07/20 04:12:30;;;;;;;6.47;4.90;;;;;;;;;;5078227;28;20452;-69
2022/07/20 04:14:57;;;;;;;4.83;3.80;;;;;;;;;;5085673;28;20587;-70
2022/07/20 04:17:25;;;;;;;5.67;4.37;;;;;;;;;;5079723;28;20725;-70
2022/07/20 04:19:53;;;;;;;6.70;4.73;;;;;;;;;;5080969;28;20494;-69
2022/07/20 04:22:20;;;;;;;6.03;4.00;;;;;;;;;;5074340;28;20479;-69
2022/07/20 04:24:48;;;;;;;6.43;4.27;;;;;;;;;;5088525;28;20476;-69
2022/07/20 04:27:16;;;;;;;9.00;4.90;;;;;;;;;;5093492;28;20526;-69
2022/07/20 04:29:45;;;;;;;5.30;4.00;;;;;;;;;;5076561;28;20461;-69
2022/07/20 04:32:12;;;;;;;6.13;4.37;;;;;;;;;;5079717;28;20474;-70
2022/07/20 04:34:40;;;;;;;10.23;5.30;;;;;;;;;;5088123;28;20470;-70
2022/07/20 04:37:08;;;;;;;6.40;4.60;;;;;;;;;;5081126;28;20468;-70
2022/07/20 04:39:36;;;;;;;7.97;4.27;;;;;;;;;;5074665;28;20575;-70
2022/07/20 04:42:03;;;;;;;9.90;4.60;;;;;;;;;;5073048;28;20575;-70
2022/07/20 04:44:31;;;;;;;5.73;4.30;;;;;;;;;;5074778;28;20475;-70
2022/07/20 04:47:00;;;;;;;49.73;13.77;;;;;;;;;;5082274;28;20543;-70
2022/07/20 04:49:28;;;;;;;15.53;5.80;;;;;;;;;;5080221;28;20894;-69
2022/07/20 04:51:56;;;;;;;9.63;4.80;;;;;;;;;;5075505;28;20468;-70
2022/07/20 04:54:24;;;;;;;10.43;5.17;;;;;;;;;;5076789;28;20562;-70
2022/07/20 04:56:52;;;;;;;7.50;4.80;;;;;;;;;;5077130;28;20554;-70
2022/07/20 04:59:20;;;;;;;6.63;4.97;;;;;;;;;;5084479;28;20490;-70
2022/07/20 05:01:49;;;;;;;7.87;4.67;;;;;;;;;;5085928;28;20464;-70
2022/07/20 05:04:18;;;;;;;6.70;4.47;;;;;;;;;;5089406;28;20447;-70
2022/07/20 05:06:45;;;;;;;6.50;3.70;;;;;;;;;;5088731;28;20467;-70
2022/07/20 05:09:13;;;;;;;6.50;4.13;;;;;;;;;;5082899;28;20463;-70
2022/07/20 05:11:41;;;;;;;7.10;4.13;;;;;;;;;;5087278;28;20493;-70
2022/07/20 05:14:10;;;;;;;6.10;4.30;;;;;;;;;;5090652;28;20464;-70
2022/07/20 05:16:41;;;;;;;7.90;4.40;;;;;;;;;;5080067;28;20469;-70
2022/07/20 05:19:11;;;;;;;7.10;4.57;;;;;;;;;;5080519;28;20479;-70
2022/07/20 05:21:40;;;;;;;7.63;4.57;;;;;;;;;;5085583;28;20456;-70
2022/07/20 05:24:08;;;;;;;6.07;4.43;;;;;;;;;;5092038;28;20440;-71
2022/07/20 05:26:37;;;;;;;10.10;4.73;;;;;;;;;;5092865;28;20576;-70
2022/07/20 05:29:05;;;;;;;6.50;5.03;;;;;;;;;;5093543;28;20548;-70
2022/07/20 05:31:33;;;;;;;8.40;4.87;;;;;;;;;;5089590;28;20555;-70
2022/07/20 05:34:00;;;;;;;6.87;4.70;;;;;;;;;;5091508;28;20459;-70
2022/07/20 05:36:28;;;;;;;6.97;4.50;;;;;;;;;;5090741;28;20594;-70
2022/07/20 05:38:57;;;;;;;12.27;4.53;;;;;;;;;;5089316;28;20516;-70
2022/07/20 05:41:25;;;;;;;4.80;4.10;;;;;;;;;;5088179;28;20517;-70
2022/07/20 05:43:53;;;;;;;9.87;4.93;;;;;;;;;;5089308;28;20848;-70
2022/07/20 05:46:21;;;;;;;6.97;4.23;;;;;;;;;;5090356;28;20561;-70
2022/07/20 05:55:00;;;;;;;7.40;4.27;;;;;;;;;;5070375;28;20565;-70
2022/07/20 05:57:28;;;;;;;7.97;4.27;;;;;;;;;;5062492;28;21097;-70
2022/07/20 06:00:12;;;;;;;11.23;5.27;;;;;;;;;;5062620;28;20477;-70
2022/07/20 06:02:40;;;;;;;5.80;4.70;;;;;;;;;;5084238;22;20527;-80
2022/07/20 06:05:09;;;;;;;6.60;4.83;;;;;;;;;;5079596;28;20551;-80
2022/07/20 06:07:36;;;;;;;7.87;5.43;;;;;;;;;;5077686;28;20476;-78
2022/07/20 06:10:07;;;;;;;12.10;3.87;;;;;;;;;;5077959;28;20742;-80
2022/07/20 06:12:34;;;;;;;6.90;4.77;;;;;;;;;;5076411;28;20819;-81
2022/07/20 06:15:02;;;;;;;9.40;4.40;;;;;;;;;;5079229;28;20789;-80
2022/07/20 06:17:37;;;;;;;8.87;5.30;;;;;;;;;;5080741;28;20597;-80
2022/07/20 06:20:07;;;;;;;6.33;4.60;;;;;;;;;;5080474;28;20491;-81
2022/07/20 06:22:37;;;;;;;5.70;4.43;;;;;;;;;;5078659;28;20453;-78
2022/07/20 06:25:08;;;;;;;6.20;4.87;;;;;;;;;;5081324;28;20864;-80
2022/07/20 06:27:35;;;;;;;8.20;5.00;;;;;;;;;;5078158;28;20495;-79
2022/07/20 06:30:04;;;;;;;9.00;4.60;;;;;;;;;;5078437;28;20459;-81
2022/07/20 06:32:33;;;;;;;5.23;4.30;;;;;;;;;;5075490;28;20448;-81
2022/07/20 06:35:00;;;;;;;5.33;4.00;;;;;;;;;;5077881;28;20523;-81
2022/07/20 06:37:29;;;;;;;7.20;4.50;;;;;;;;;;5079354;28;20527;-82
2022/07/20 06:39:56;;;;;;;7.60;4.43;;;;;;;;;;5078059;28;20512;-82
2022/07/20 06:42:26;;;;;;;6.20;4.07;;;;;;;;;;5080783;28;20491;-81
2022/07/20 06:44:53;;;;;;;7.17;4.13;;;;;;;;;;5083145;28;20534;-80
2022/07/20 06:47:22;;;;;;;7.00;5.13;;;;;;;;;;5072174;28;20552;-78
2022/07/20 06:49:52;;;;;;;6.17;4.70;;;;;;;;;;5081450;28;20479;-78
2022/07/20 06:52:20;;;;;;;5.70;3.90;;;;;;;;;;5065499;28;20480;-82
2022/07/20 06:54:48;;;;;;;10.17;4.37;;;;;;;;;;5082012;28;20891;-80
2022/07/20 06:57:15;;;;;;;9.30;5.10;;;;;;;;;;5082666;28;20448;-80
2022/07/20 06:59:44;;;;;;;4.90;4.07;;;;;;;;;;5085109;28;20515;-80
2022/07/20 07:02:13;;;;;;;7.27;4.77;;;;;;;;;;5084896;28;20494;-81
2022/07/20 07:04:40;;;;;;;6.37;4.20;;;;;;;;;;5079505;28;20470;-81
2022/07/20 07:07:08;;;;;;;5.57;4.77;;;;;;;;;;5077388;28;21551;-80
2022/07/20 07:09:36;;;;;;;6.63;4.47;;;;;;;;;;5081575;28;20456;-81
2022/07/20 07:12:04;;;;;;;4.20;3.77;;;;;;;;;;5079753;28;20464;-81
2022/07/20 07:14:32;;;;;;;5.43;4.27;;;;;;;;;;5064241;28;20449;-81
2022/07/20 07:17:05;;;;;;;7.30;5.47;;;;;;;;;;5074876;28;20504;-80
2022/07/20 07:19:32;;;;;;;6.80;4.57;;;;;;;;;;5089921;28;20475;-79
2022/07/20 07:22:00;;;;;;;5.23;4.20;;;;;;;;;;5079899;28;21066;-79
2022/07/20 07:24:29;;;;;;;7.90;5.90;;;;;;;;;;5083173;28;20777;-78
2022/07/20 07:26:56;;;;;;;6.20;4.83;;;;;;;;;;5078042;28;20468;-81
2022/07/20 07:29:24;;;;;;;8.73;4.10;;;;;;;;;;5082073;28;20453;-79
2022/07/20 07:32:04;;;;;;;5.23;4.00;;;;;;;;;;5077979;28;20465;-77
2022/07/20 07:34:34;;;;;;;7.70;4.53;;;;;;;;;;5078914;28;20502;-78
2022/07/20 07:37:05;;;;;;;8.63;4.37;;;;;;;;;;5082832;28;20501;-78
2022/07/20 07:39:33;;;;;;;6.57;4.80;;;;;;;;;;5080797;28;20460;-76
2022/07/20 07:42:01;;;;;;;4.70;4.00;;;;;;;;;;5075103;28;20465;-77
2022/07/20 07:44:47;;;;;;;6.47;5.07;;;;;;;;;;5073909;28;20526;-77
2022/07/20 07:47:20;;;;;;;8.60;4.70;;;;;;;;;;5077748;28;20876;-79
2022/07/20 07:49:50;;;;;;;7.67;4.30;;;;;;;;;;5079456;28;20460;-79
2022/07/20 07:52:19;;;;;;;6.20;4.20;;;;;;;;;;5079418;28;20453;-80
2022/07/20 07:54:47;;;;;;;4.97;4.30;;;;;;;;;;5078948;28;20456;-79
2022/07/20 07:57:15;;;;;;;7.83;4.43;;;;;;;;;;5075071;28;21010;-80
2022/07/20 07:59:43;;;;;;;8.10;4.70;;;;;;;;;;5080623;28;20501;-80
2022/07/20 08:02:11;;;;;;;10.47;4.93;;;;;;;;;;5066556;28;20480;-80
2022/07/20 08:04:39;;;;;;;8.30;4.90;;;;;;;;;;5074996;28;20532;-80
2022/07/20 08:07:08;;;;;;;8.70;5.30;;;;;;;;;;5065297;28;20460;-78
2022/07/20 08:09:36;;;;;;;8.10;4.90;;;;;;;;;;5067626;28;20500;-80
2022/07/20 08:12:04;;;;;;;9.37;4.40;;;;;;;;;;5072178;28;20453;-80
2022/07/20 08:14:32;;;;;;;5.70;4.10;;;;;;;;;;5054409;28;20830;-79
2022/07/20 08:17:00;;;;;;;9.70;5.10;;;;;;;;;;5073679;28;20489;-83
2022/07/20 08:19:30;;;;;;;6.80;5.00;;;;;;;;;;5055947;28;20462;-80
2022/07/20 08:21:58;;;;;;;7.63;4.97;;;;;;;;;;5054395;28;20531;-81
2022/07/20 08:24:27;;;;;;;13.53;6.43;;;;;;;;;;5056006;28;20758;-80
2022/07/20 08:27:03;;;;;;;7.10;4.53;;;;;;;;;;5069448;28;20469;-80
2022/07/20 08:29:31;;;;;;;10.80;4.63;;;;;;;;;;5055542;28;20460;-80
2022/07/20 08:31:59;;;;;;;8.43;4.90;;;;;;;;;;5056022;28;20894;-80
2022/07/20 08:34:27;;;;;;;9.30;5.27;;;;;;;;;;5053999;28;20825;-79
2022/07/20 08:36:55;;;;;;;6.10;4.70;;;;;;;;;;5058270;28;20524;-80
2022/07/20 08:39:25;;;;;;;7.80;4.50;;;;;;;;;;5047501;28;20466;-79
2022/07/20 08:41:55;;;;;;;6.13;4.70;;;;;;;;;;5046994;28;20932;-80
2022/07/20 08:44:22;;;;;;;8.50;4.37;;;;;;;;;;5053538;28;20916;-81
2022/07/20 08:46:51;;;;;;;7.10;4.80;;;;;;;;;;5061750;28;20524;-80
2022/07/20 08:49:22;;;;;;;7.10;4.40;;;;;;;;;;5058866;28;20457;-78
2022/07/20 08:51:49;;;;;;;11.13;5.37;;;;;;;;;;5052607;28;20455;-77
2022/07/20 08:54:17;;;;;;;11.57;4.80;;;;;;;;;;5050080;28;20825;-79
2022/07/20 08:56:45;;;;;;;6.90;4.90;;;;;;;;;;5064923;28;20465;-81
2022/07/20 08:59:24;;;;;;;6.80;4.20;;;;;;;;;;5050525;28;20525;-80
2022/07/20 09:02:05;;;;;;;9.57;5.93;;;;;;;;;;5067077;28;20473;-79
2022/07/20 09:05:03;;;;;;;6.10;4.50;;;;;;;;;;5073610;28;20461;-81
2022/07/20 09:07:47;;;;;;;5.70;4.60;;;;;;;;;;5063954;28;20552;-80
2022/07/20 09:10:16;;;;;;;5.90;3.80;;;;;;;;;;5073259;28;20481;-81
2022/07/20 09:12:55;;;;;;;7.40;4.53;;;;;;;;;;5067184;28;20454;-83
2022/07/20 09:15:30;;;;;;;5.77;4.20;;;;;;;;;;5063701;28;20468;-79
2022/07/20 09:18:05;;;;;;;9.43;4.70;;;;;;;;;;5071180;28;20464;-78
2022/07/20 09:20:34;;;;;;;12.50;4.40;;;;;;;;;;5066616;28;20840;-78
2022/07/20 09:23:02;;;;;;;6.77;5.23;;;;;;;;;;5074907;28;20497;-80
2022/07/20 09:25:30;;;;;;;4.80;4.10;;;;;;;;;;5069438;28;20448;-82
2022/07/20 09:27:59;;;;;;;9.80;5.13;;;;;;;;;;5062127;28;20469;-78
2022/07/20 09:30:27;;;;;;;6.50;4.40;;;;;;;;;;5072584;28;20465;-79
2022/07/20 09:33:11;;;;;;;7.10;4.70;;;;;;;;;;5066131;28;20758;-77
2022/07/20 09:35:42;;;;;;;6.53;4.17;;;;;;;;;;5073294;28;20452;-81
2022/07/20 09:38:09;;;;;;;6.57;4.97;;;;;;;;;;5066954;28;20519;-82
2022/07/20 09:40:42;;;;;;;5.07;4.23;;;;;;;;;;5073716;28;21131;-78
2022/07/20 09:43:09;;;;;;;9.30;4.83;;;;;;;;;;5071447;28;20482;-80
2022/07/20 09:45:37;;;;;;;4.90;3.80;;;;;;;;;;5078017;28;20597;-78
2022/07/20 09:48:06;;;;;;;5.40;4.43;;;;;;;;;;5078654;28;20468;-79
2022/07/20 09:50:35;;;;;;;5.33;4.30;;;;;;;;;;5072348;28;20463;-78
2022/07/20 09:53:04;;;;;;;5.30;3.80;;;;;;;;;;5068005;28;20481;-78
2022/07/20 09:55:40;;;;;;;5.07;4.03;;;;;;;;;;5071734;28;20460;-79
2022/07/20 09:58:08;;;;;;;8.87;4.47;;;;;;;;;;5067472;28;20471;-78
2022/07/20 10:00:37;;;;;;;5.10;4.20;;;;;;;;;;5065579;28;20551;-77
2022/07/20 10:03:07;;;;;;;7.13;4.60;;;;;;;;;;5062345;28;20489;-79
2022/07/20 10:05:37;;;;;;;8.80;4.23;;;;;;;;;;5064405;28;20464;-79
2022/07/20 10:08:09;;;;;;;8.47;4.23;;;;;;;;;;5075145;28;20903;-79
2022/07/20 10:10:37;;;;;;;10.30;4.50;;;;;;;;;;5072292;28;20536;-81
2022/07/20 10:13:05;;;;;;;6.67;4.37;;;;;;;;;;5070020;28;20548;-81
2022/07/20 10:15:40;;;;;;;8.50;3.87;;;;;;;;;;5070266;28;20529;-82
2022/07/20 10:18:12;;;;;;;5.17;3.73;;;;;;;;;;5065277;28;20535;-80
2022/07/20 10:20:40;;;;;;;4.67;2.97;;;;;;;;;;5068323;28;20550;-81
2022/07/20 10:23:31;;;;;;;5.93;3.80;;;;;;;;;;5072776;28;20478;-81
2022/07/20 10:26:01;;;;;;;8.17;4.40;;;;;;;;;;5070100;28;20773;-80
2022/07/20 10:28:33;;;;;;;8.50;3.73;;;;;;;;;;5078090;28;20485;-81
2022/07/20 10:31:04;;;;;;;6.60;3.60;;;;;;;;;;5071980;28;20461;-79
2022/07/20 10:33:33;;;;;;;3.87;2.97;;;;;;;;;;5067297;28;20461;-80
2022/07/20 10:38:56;;;;;;;5.60;3.67;;;;;;;;;;5074816;28;20620;-78
2022/07/20 10:41:36;;;;;;;5.97;4.00;;;;;;;;;;5072413;28;20531;-79
2022/07/20 10:44:24;;;;;;;5.60;4.40;;;;;;;;;;5072235;28;20484;-81
2022/07/20 10:46:52;;;;;;;7.77;4.07;;;;;;;;;;5078998;28;20460;-79
2022/07/20 10:49:20;;;;;;;6.90;3.77;;;;;;;;;;5073368;28;20461;-81
2022/07/20 10:52:08;;;;;;;4.70;3.30;;;;;;;;;;5075667;28;20783;-81
2022/07/20 10:54:36;;;;;;;4.50;3.80;;;;;;;;;;5071680;28;20530;-81
2022/07/20 10:57:05;;;;;;;8.43;3.70;;;;;;;;;;5075200;28;20492;-78
2022/07/20 10:59:33;;;;;;;6.47;4.20;;;;;;;;;;5064422;28;20479;-77
2022/07/20 11:02:01;;;;;;;5.80;3.83;;;;;;;;;;5079851;28;20512;-81
2022/07/20 11:04:29;;;;;;;4.77;3.43;;;;;;;;;;5079390;28;20457;-80
2022/07/20 11:06:56;;;;;;;5.77;3.60;;;;;;;;;;5061167;28;20517;-80
2022/07/20 11:09:35;;;;;;;6.93;3.37;;;;;;;;;;5073994;28;20552;-77
2022/07/20 11:12:05;;;;;;;7.57;4.50;;;;;;;;;;5077969;28;20548;-80
2022/07/20 11:14:51;;;;;;;8.60;4.90;;;;;;;;;;5076099;28;20457;-80
2022/07/20 11:17:19;;;;;;;5.03;3.60;;;;;;;;;;5071341;28;20555;-80
2022/07/20 11:19:48;;;;;;;6.80;3.80;;;;;;;;;;5074344;28;20445;-80
2022/07/20 11:22:25;;;;;;;5.93;3.27;;;;;;;;;;5080262;28;20579;-80
2022/07/20 11:24:56;;;;;;;7.53;3.63;;;;;;;;;;5073852;28;20520;-80
2022/07/20 11:27:25;;;;;;;3.77;3.07;;;;;;;;;;5077183;28;20538;-80
2022/07/20 11:29:53;;;;;;;8.70;4.40;;;;;;;;;;5070192;28;20500;-80
2022/07/20 11:32:21;;;;;;;4.90;3.67;;;;;;;;;;5065069;28;20499;-79
2022/07/20 11:34:51;;;;;;;4.87;3.73;;;;;;;;;;5068697;28;20437;-79
2022/07/20 11:37:21;;;;;;;4.97;3.63;;;;;;;;;;5081593;28;20740;-79
2022/07/20 11:39:56;;;;;;;6.80;4.23;;;;;;;;;;5077284;28;20499;-79
2022/07/20 11:42:25;;;;;;;6.50;3.97;;;;;;;;;;5082758;28;20480;-80
2022/07/20 11:45:00;;;;;;;6.57;4.30;;;;;;;;;;5080737;28;20469;-78
2022/07/20 11:47:28;;;;;;;5.60;3.17;;;;;;;;;;5075241;28;20464;-79
2022/07/20 11:50:12;;;;;;;6.90;3.63;;;;;;;;;;5069849;28;20462;-80
2022/07/20 11:52:40;;;;;;;9.53;3.93;;;;;;;;;;5080671;28;20550;-79
2022/07/20 11:55:09;;;;;;;7.50;3.43;;;;;;;;;;5080819;28;20449;-81
2022/07/20 11:57:38;;;;;;;5.80;3.67;;;;;;;;;;5070388;28;20465;-80
2022/07/20 12:00:08;;;;;;;10.07;3.87;;;;;;;;;;5069072;28;20446;-80
2022/07/20 12:02:36;;;;;;;6.63;3.23;;;;;;;;;;5070881;28;20574;-81
2022/07/20 12:05:04;;;;;;;5.50;3.17;;;;;;;;;;5070233;28;20519;-80
2022/07/20 12:10:20;;;;;;;4.33;2.93;;;;;;;;;;5070385;28;20790;-79
2022/07/20 12:13:08;;;;;;;5.90;3.80;;;;;;;;;;5069702;28;20463;-79
2022/07/20 12:15:36;;;;;;;4.77;3.60;;;;;;;;;;5082679;28;20464;-79
2022/07/20 12:18:04;;;;;;;5.30;2.87;;;;;;;;;;5081183;28;20550;-80
2022/07/20 12:20:32;;;;;;;7.03;3.80;;;;;;;;;;5065990;28;20864;-80
2022/07/20 12:23:01;;;;;;;3.93;3.00;;;;;;;;;;5072781;28;20541;-77
2022/07/20 12:25:40;;;;;;;5.83;3.80;;;;;;;;;;5071702;28;20848;-81
2022/07/20 12:28:09;;;;;;;6.30;3.50;;;;;;;;;;5075332;28;20496;-80
2022/07/20 12:30:49;;;;;;;6.17;3.83;;;;;;;;;;5075169;28;20467;-78
2022/07/20 12:33:19;;;;;;;4.90;3.43;;;;;;;;;;5079275;28;20503;-80
2022/07/20 12:35:48;;;;;;;5.20;3.80;;;;;;;;;;5072746;28;20453;-80
2022/07/20 12:38:17;;;;;;;8.00;3.87;;;;;;;;;;5067529;28;20500;-80
2022/07/20 12:40:46;;;;;;;5.70;4.30;;;;;;;;;;5071137;28;20549;-76
2022/07/20 12:43:34;;;;;;;7.30;3.60;;;;;;;;;;5067824;28;20481;-77
2022/07/20 12:46:06;;;;;;;5.33;3.70;;;;;;;;;;5075579;28;20483;-80
2022/07/20 12:48:35;;;;;;;4.73;3.30;;;;;;;;;;5067319;28;20519;-78
2022/07/20 12:51:06;;;;;;;9.60;3.77;;;;;;;;;;5077082;28;20468;-79
2022/07/20 12:53:34;;;;;;;4.70;3.27;;;;;;;;;;5072558;28;20456;-81
2022/07/20 12:56:04;;;;;;;6.20;3.67;;;;;;;;;;5071805;28;20503;-80
2022/07/20 12:58:36;;;;;;;4.80;3.30;;;;;;;;;;5074063;28;20504;-77
2022/07/20 13:01:09;;;;;;;5.40;3.60;;;;;;;;;;5081574;28;20460;-79
2022/07/20 13:03:39;;;;;;;8.63;4.60;;;;;;;;;;5074331;28;20505;-80
2022/07/20 13:06:18;;;;;;;6.30;4.20;;;;;;;;;;5074970;28;20720;-79
2022/07/20 13:08:46;;;;;;;6.07;3.07;;;;;;;;;;5070504;28;21119;-80
2022/07/20 13:11:13;;;;;;;7.03;3.73;;;;;;;;;;5077967;28;20814;-80
2022/07/20 13:13:43;;;;;;;5.20;3.30;;;;;;;;;;5081351;28;20767;-79
2022/07/20 13:16:11;;;;;;;8.13;4.00;;;;;;;;;;5074059;28;20477;-76
2022/07/20 13:18:39;;;;;;;6.80;3.17;;;;;;;;;;5075140;28;20450;-79
2022/07/20 13:21:08;;;;;;;4.70;3.23;;;;;;;;;;5068474;28;20452;-79
2022/07/20 13:23:36;;;;;;;6.23;3.10;;;;;;;;;;5072943;28;20732;-81
2022/07/20 13:26:03;;;;;;;7.70;3.50;;;;;;;;;;5076095;28;20473;-82
2022/07/20 13:28:33;;;;;;;6.13;3.37;;;;;;;;;;5075987;28;20470;-80
2022/07/20 13:31:02;;;;;;;3.53;2.67;;;;;;;;;;5071780;28;20458;-80
2022/07/20 13:33:30;;;;;;;6.40;3.23;;;;;;;;;;5076332;28;20904;-78
2022/07/20 13:35:58;;;;;;;7.43;3.90;;;;;;;;;;5079236;28;20480;-83
2022/07/20 13:38:26;;;;;;;4.93;3.03;;;;;;;;;;5074045;28;20507;-79
2022/07/20 13:40:55;;;;;;;5.67;3.53;;;;;;;;;;5070374;28;20538;-80
2022/07/20 13:43:23;;;;;;;6.47;3.70;;;;;;;;;;5075187;28;20749;-77
2022/07/20 13:45:51;;;;;;;6.50;3.40;;;;;;;;;;5071261;28;20623;-81
2022/07/20 13:48:20;;;;;;;4.80;3.43;;;;;;;;;;5072460;28;20876;-81
2022/07/20 13:50:51;;;;;;;9.70;4.03;;;;;;;;;;5065370;28;20484;-80
2022/07/20 13:53:19;;;;;;;6.13;3.23;;;;;;;;;;5073517;28;20567;-80
2022/07/20 13:55:49;;;;;;;7.20;3.80;;;;;;;;;;5072802;28;21039;-81
2022/07/20 13:58:20;;;;;;;6.07;3.40;;;;;;;;;;5066366;28;20468;-80
2022/07/20 14:00:47;;;;;;;5.40;4.10;;;;;;;;;;5080478;28;20461;-77
2022/07/20 14:03:15;;;;;;;5.50;4.17;;;;;;;;;;5064361;28;20497;-80
2022/07/20 14:05:45;;;;;;;8.03;3.70;;;;;;;;;;5070296;28;20487;-78
2022/07/20 14:08:13;;;;;;;5.67;3.03;;;;;;;;;;5069127;28;20512;-81
2022/07/20 14:10:41;;;;;;;7.73;3.10;;;;;;;;;;5061673;28;20851;-79
2022/07/20 14:13:11;;;;;;;4.63;3.17;;;;;;;;;;5062237;28;20474;-80
2022/07/20 14:15:39;;;;;;;5.40;3.30;;;;;;;;;;5065021;28;20465;-80
2022/07/20 14:18:07;;;;;;;4.73;3.37;;;;;;;;;;5062094;28;20465;-80
2022/07/20 14:20:40;;;;;;;6.77;3.93;;;;;;;;;;5065587;28;20453;-78
2022/07/20 14:23:10;;;;;;;5.87;3.17;;;;;;;;;;5075125;28;20955;-79
2022/07/20 14:25:38;;;;;;;4.00;3.30;;;;;;;;;;5069598;28;20705;-79
2022/07/20 14:28:06;;;;;;;5.47;3.47;;;;;;;;;;5070097;28;20462;-78
2022/07/20 14:30:34;;;;;;;7.03;5.30;;;;;;;;;;5069755;28;20492;-80
2022/07/20 14:33:03;;;;;;;8.23;3.93;;;;;;;;;;5069636;28;20485;-78
2022/07/20 14:35:32;;;;;;;4.80;2.97;;;;;;;;;;5073093;28;20543;-81
2022/07/20 14:38:00;;;;;;;6.40;4.13;;;;;;;;;;5063957;28;20472;-78
2022/07/20 14:40:31;;;;;;;6.07;3.00;;;;;;;;;;5071345;28;20456;-79
2022/07/20 14:42:59;;;;;;;5.40;3.43;;;;;;;;;;5073150;28;20554;-79
2022/07/20 14:45:27;;;;;;;4.80;3.80;;;;;;;;;;5064494;28;20465;-80
2022/07/20 14:47:57;;;;;;;4.70;3.77;;;;;;;;;;5059905;28;20484;-79
2022/07/20 14:50:25;;;;;;;5.10;3.37;;;;;;;;;;5062577;28;20761;-79
2022/07/20 14:52:52;;;;;;;5.43;3.30;;;;;;;;;;5068393;28;20543;-81
2022/07/20 14:55:22;;;;;;;10.10;3.23;;;;;;;;;;5075110;28;20587;-80
2022/07/20 14:57:52;;;;;;;3.80;2.87;;;;;;;;;;5063271;28;20457;-79
2022/07/20 15:00:20;;;;;;;8.13;3.20;;;;;;;;;;5070795;28;20464;-78
2022/07/20 15:02:49;;;;;;;4.33;3.40;;;;;;;;;;5063802;28;20487;-77
2022/07/20 15:05:17;;;;;;;5.30;3.53;;;;;;;;;;5074620;28;20501;-78
2022/07/20 15:07:46;;;;;;;8.63;3.50;;;;;;;;;;5074950;28;20468;-79